sensor_id;sensor_type;location;lat;lon;timestamp;P1;durP1;ratioP1;P2;durP2;ratioP2
51987;SDS011;38003;52.012;4.346;2023-02-28T00:01:30;5.13;;;2.10;;
51987;SDS011;38003;52.012;4.346;2023-02-28T00:03:58;3.50;;;2.27;;
51987;SDS011;38003;52.012;4.346;2023-02-28T00:06:26;4.43;;;2.20;;
51987;SDS011;38003;52.012;4.346;2023-02-28T00:08:55;2.90;;;2.20;;
51987;SDS011;38003;52.012;4.346;2023-02-28T00:11:25;4.27;;;2.37;;
51987;SDS011;38003;52.012;4.346;2023-02-28T00:13:53;5.27;;;2.20;;
51987;SDS011;38003;52.012;4.346;2023-02-28T00:16:22;4.37;;;2.40;;
51987;SDS011;38003;52.012;4.346;2023-02-28T00:18:50;6.50;;;2.07;;
51987;SDS011;38003;52.012;4.346;2023-02-28T00:21:19;4.90;;;2.40;;
51987;SDS011;38003;52.012;4.346;2023-02-28T00:23:47;9.07;;;3.00;;
51987;SDS011;38003;52.012;4.346;2023-02-28T00:26:16;5.30;;;2.40;;
51987;SDS011;38003;52.012;4.346;2023-02-28T00:28:48;4.00;;;2.50;;
51987;SDS011;38003;52.012;4.346;2023-02-28T00:31:18;6.03;;;2.47;;
51987;SDS011;38003;52.012;4.346;2023-02-28T00:33:47;4.30;;;2.57;;
51987;SDS011;38003;52.012;4.346;2023-02-28T00:36:15;3.27;;;2.13;;
51987;SDS011;38003;52.012;4.346;2023-02-28T00:38:43;4.10;;;2.90;;
51987;SDS011;38003;52.012;4.346;2023-02-28T00:41:11;4.43;;;2.50;;
51987;SDS011;38003;52.012;4.346;2023-02-28T00:43:39;5.90;;;2.20;;
51987;SDS011;38003;52.012;4.346;2023-02-28T00:46:10;4.03;;;2.70;;
51987;SDS011;38003;52.012;4.346;2023-02-28T00:48:38;4.90;;;2.60;;
51987;SDS011;38003;52.012;4.346;2023-02-28T00:51:06;4.87;;;2.20;;
51987;SDS011;38003;52.012;4.346;2023-02-28T00:53:34;3.10;;;2.30;;
51987;SDS011;38003;52.012;4.346;2023-02-28T00:56:03;3.30;;;2.07;;
51987;SDS011;38003;52.012;4.346;2023-02-28T00:58:31;4.33;;;2.20;;
51987;SDS011;38003;52.012;4.346;2023-02-28T01:00:59;4.70;;;2.37;;
51987;SDS011;38003;52.012;4.346;2023-02-28T01:03:29;3.63;;;2.10;;
51987;SDS011;38003;52.012;4.346;2023-02-28T01:05:57;4.63;;;2.30;;
51987;SDS011;38003;52.012;4.346;2023-02-28T01:08:25;4.10;;;2.17;;
51987;SDS011;38003;52.012;4.346;2023-02-28T01:10:54;3.60;;;2.23;;
51987;SDS011;38003;52.012;4.346;2023-02-28T01:13:22;3.07;;;2.07;;
51987;SDS011;38003;52.012;4.346;2023-02-28T01:15:52;5.63;;;2.10;;
51987;SDS011;38003;52.012;4.346;2023-02-28T01:18:20;4.20;;;2.40;;
51987;SDS011;38003;52.012;4.346;2023-02-28T01:20:50;4.77;;;2.93;;
51987;SDS011;38003;52.012;4.346;2023-02-28T01:23:19;5.23;;;2.30;;
51987;SDS011;38003;52.012;4.346;2023-02-28T01:25:47;3.60;;;2.30;;
51987;SDS011;38003;52.012;4.346;2023-02-28T01:28:16;3.30;;;2.33;;
51987;SDS011;38003;52.012;4.346;2023-02-28T01:30:47;4.37;;;2.50;;
51987;SDS011;38003;52.012;4.346;2023-02-28T01:33:15;3.40;;;2.40;;
51987;SDS011;38003;52.012;4.346;2023-02-28T01:35:43;3.50;;;2.77;;
51987;SDS011;38003;52.012;4.346;2023-02-28T01:38:13;4.50;;;2.43;;
51987;SDS011;38003;52.012;4.346;2023-02-28T01:40:48;4.33;;;2.30;;
51987;SDS011;38003;52.012;4.346;2023-02-28T01:43:19;8.23;;;2.57;;
51987;SDS011;38003;52.012;4.346;2023-02-28T01:45:47;3.97;;;2.60;;
51987;SDS011;38003;52.012;4.346;2023-02-28T01:48:15;4.27;;;2.40;;
51987;SDS011;38003;52.012;4.346;2023-02-28T01:50:45;3.80;;;2.40;;
51987;SDS011;38003;52.012;4.346;2023-02-28T01:53:17;4.43;;;2.70;;
51987;SDS011;38003;52.012;4.346;2023-02-28T01:55:47;5.77;;;2.57;;
51987;SDS011;38003;52.012;4.346;2023-02-28T01:58:17;4.70;;;2.83;;
51987;SDS011;38003;52.012;4.346;2023-02-28T02:00:45;3.37;;;2.43;;
51987;SDS011;38003;52.012;4.346;2023-02-28T02:03:14;5.03;;;2.63;;
51987;SDS011;38003;52.012;4.346;2023-02-28T02:05:45;3.30;;;2.70;;
51987;SDS011;38003;52.012;4.346;2023-02-28T02:08:15;4.03;;;2.70;;
51987;SDS011;38003;52.012;4.346;2023-02-28T02:10:46;4.43;;;2.90;;
51987;SDS011;38003;52.012;4.346;2023-02-28T02:13:24;3.00;;;2.70;;
51987;SDS011;38003;52.012;4.346;2023-02-28T02:15:57;5.37;;;3.00;;
51987;SDS011;38003;52.012;4.346;2023-02-28T02:18:30;3.87;;;2.80;;
51987;SDS011;38003;52.012;4.346;2023-02-28T02:21:07;7.00;;;2.83;;
51987;SDS011;38003;52.012;4.346;2023-02-28T02:29:24;4.77;;;2.90;;
51987;SDS011;38003;52.012;4.346;2023-02-28T02:32:09;8.17;;;3.17;;
51987;SDS011;38003;52.012;4.346;2023-02-28T02:34:45;4.90;;;3.33;;
51987;SDS011;38003;52.012;4.346;2023-02-28T02:37:20;5.60;;;3.03;;
51987;SDS011;38003;52.012;4.346;2023-02-28T02:39:51;6.87;;;3.17;;
51987;SDS011;38003;52.012;4.346;2023-02-28T02:42:22;7.20;;;3.17;;
51987;SDS011;38003;52.012;4.346;2023-02-28T02:44:52;4.37;;;2.97;;
51987;SDS011;38003;52.012;4.346;2023-02-28T02:47:23;4.23;;;2.90;;
51987;SDS011;38003;52.012;4.346;2023-02-28T02:49:54;8.00;;;3.10;;
51987;SDS011;38003;52.012;4.346;2023-02-28T02:52:24;4.57;;;2.93;;
51987;SDS011;38003;52.012;4.346;2023-02-28T02:54:56;6.30;;;3.17;;
51987;SDS011;38003;52.012;4.346;2023-02-28T02:57:27;5.37;;;3.10;;
51987;SDS011;38003;52.012;4.346;2023-02-28T02:59:57;4.37;;;3.00;;
51987;SDS011;38003;52.012;4.346;2023-02-28T03:02:26;5.77;;;3.30;;
51987;SDS011;38003;52.012;4.346;2023-02-28T03:05:03;4.50;;;3.33;;
51987;SDS011;38003;52.012;4.346;2023-02-28T03:07:32;5.50;;;3.30;;
51987;SDS011;38003;52.012;4.346;2023-02-28T03:10:00;5.70;;;3.63;;
51987;SDS011;38003;52.012;4.346;2023-02-28T03:12:31;4.83;;;3.50;;
51987;SDS011;38003;52.012;4.346;2023-02-28T03:15:03;5.17;;;3.67;;
51987;SDS011;38003;52.012;4.346;2023-02-28T03:17:42;5.93;;;3.43;;
51987;SDS011;38003;52.012;4.346;2023-02-28T03:20:18;6.90;;;3.60;;
51987;SDS011;38003;52.012;4.346;2023-02-28T03:22:52;4.23;;;3.40;;
51987;SDS011;38003;52.012;4.346;2023-02-28T03:25:27;5.70;;;3.40;;
51987;SDS011;38003;52.012;4.346;2023-02-28T03:28:00;6.50;;;3.37;;
51987;SDS011;38003;52.012;4.346;2023-02-28T03:30:29;4.97;;;3.53;;
51987;SDS011;38003;52.012;4.346;2023-02-28T03:33:00;6.30;;;3.57;;
51987;SDS011;38003;52.012;4.346;2023-02-28T03:35:34;4.70;;;3.57;;
51987;SDS011;38003;52.012;4.346;2023-02-28T03:38:05;7.80;;;3.90;;
51987;SDS011;38003;52.012;4.346;2023-02-28T03:40:34;5.23;;;3.67;;
51987;SDS011;38003;52.012;4.346;2023-02-28T03:43:07;9.53;;;4.30;;
51987;SDS011;38003;52.012;4.346;2023-02-28T03:45:37;7.00;;;3.77;;
51987;SDS011;38003;52.012;4.346;2023-02-28T03:48:07;7.50;;;4.40;;
51987;SDS011;38003;52.012;4.346;2023-02-28T03:50:38;5.93;;;3.83;;
51987;SDS011;38003;52.012;4.346;2023-02-28T03:53:08;5.40;;;3.40;;
51987;SDS011;38003;52.012;4.346;2023-02-28T03:55:38;6.93;;;4.40;;
51987;SDS011;38003;52.012;4.346;2023-02-28T03:58:08;9.13;;;4.37;;
51987;SDS011;38003;52.012;4.346;2023-02-28T04:00:40;7.17;;;4.00;;
51987;SDS011;38003;52.012;4.346;2023-02-28T04:03:09;6.33;;;4.27;;
51987;SDS011;38003;52.012;4.346;2023-02-28T04:05:46;7.20;;;4.50;;
51987;SDS011;38003;52.012;4.346;2023-02-28T04:08:16;6.23;;;3.97;;
51987;SDS011;38003;52.012;4.346;2023-02-28T04:10:45;5.43;;;4.40;;
51987;SDS011;38003;52.012;4.346;2023-02-28T04:13:15;8.97;;;4.33;;
51987;SDS011;38003;52.012;4.346;2023-02-28T04:15:43;4.53;;;3.50;;
51987;SDS011;38003;52.012;4.346;2023-02-28T04:18:11;7.17;;;4.67;;
51987;SDS011;38003;52.012;4.346;2023-02-28T04:20:39;8.27;;;4.23;;
51987;SDS011;38003;52.012;4.346;2023-02-28T04:23:09;5.47;;;3.73;;
51987;SDS011;38003;52.012;4.346;2023-02-28T04:25:37;5.60;;;4.33;;
51987;SDS011;38003;52.012;4.346;2023-02-28T04:28:06;8.30;;;4.40;;
51987;SDS011;38003;52.012;4.346;2023-02-28T04:30:37;8.90;;;4.30;;
51987;SDS011;38003;52.012;4.346;2023-02-28T04:33:05;5.07;;;4.30;;
51987;SDS011;38003;52.012;4.346;2023-02-28T04:35:34;7.33;;;4.60;;
51987;SDS011;38003;52.012;4.346;2023-02-28T04:38:02;5.07;;;4.13;;
51987;SDS011;38003;52.012;4.346;2023-02-28T04:40:31;5.30;;;4.00;;
51987;SDS011;38003;52.012;4.346;2023-02-28T04:43:00;7.90;;;4.63;;
51987;SDS011;38003;52.012;4.346;2023-02-28T04:45:30;7.80;;;4.50;;
51987;SDS011;38003;52.012;4.346;2023-02-28T04:48:00;7.53;;;4.73;;
51987;SDS011;38003;52.012;4.346;2023-02-28T04:50:28;7.77;;;4.97;;
51987;SDS011;38003;52.012;4.346;2023-02-28T04:52:56;7.57;;;4.47;;
51987;SDS011;38003;52.012;4.346;2023-02-28T04:55:24;6.87;;;5.03;;
51987;SDS011;38003;52.012;4.346;2023-02-28T04:57:54;7.77;;;4.87;;
51987;SDS011;38003;52.012;4.346;2023-02-28T05:00:22;8.10;;;4.97;;
51987;SDS011;38003;52.012;4.346;2023-02-28T05:02:51;8.73;;;4.60;;
51987;SDS011;38003;52.012;4.346;2023-02-28T05:05:19;8.30;;;5.13;;
51987;SDS011;38003;52.012;4.346;2023-02-28T05:07:47;10.73;;;5.27;;
51987;SDS011;38003;52.012;4.346;2023-02-28T05:10:16;6.57;;;5.87;;
51987;SDS011;38003;52.012;4.346;2023-02-28T05:12:44;6.03;;;5.17;;
51987;SDS011;38003;52.012;4.346;2023-02-28T05:15:15;8.47;;;5.53;;
51987;SDS011;38003;52.012;4.346;2023-02-28T05:17:44;7.87;;;5.20;;
51987;SDS011;38003;52.012;4.346;2023-02-28T05:20:12;6.63;;;5.17;;
51987;SDS011;38003;52.012;4.346;2023-02-28T05:22:41;9.77;;;5.80;;
51987;SDS011;38003;52.012;4.346;2023-02-28T05:25:10;10.03;;;6.10;;
51987;SDS011;38003;52.012;4.346;2023-02-28T05:27:41;8.53;;;5.63;;
51987;SDS011;38003;52.012;4.346;2023-02-28T05:30:10;7.57;;;5.30;;
51987;SDS011;38003;52.012;4.346;2023-02-28T05:32:39;8.83;;;6.00;;
51987;SDS011;38003;52.012;4.346;2023-02-28T05:35:09;8.73;;;5.80;;
51987;SDS011;38003;52.012;4.346;2023-02-28T05:37:37;8.97;;;5.97;;
51987;SDS011;38003;52.012;4.346;2023-02-28T05:40:07;8.47;;;5.77;;
51987;SDS011;38003;52.012;4.346;2023-02-28T05:42:36;8.47;;;5.80;;
51987;SDS011;38003;52.012;4.346;2023-02-28T05:45:05;8.57;;;6.10;;
51987;SDS011;38003;52.012;4.346;2023-02-28T05:47:34;9.77;;;6.03;;
51987;SDS011;38003;52.012;4.346;2023-02-28T05:50:04;9.50;;;6.30;;
51987;SDS011;38003;52.012;4.346;2023-02-28T05:52:33;8.73;;;6.67;;
51987;SDS011;38003;52.012;4.346;2023-02-28T05:55:01;9.00;;;6.00;;
51987;SDS011;38003;52.012;4.346;2023-02-28T05:57:29;7.93;;;5.70;;
51987;SDS011;38003;52.012;4.346;2023-02-28T05:59:57;7.43;;;6.20;;
51987;SDS011;38003;52.012;4.346;2023-02-28T06:02:25;7.53;;;6.27;;
51987;SDS011;38003;52.012;4.346;2023-02-28T06:04:54;7.20;;;6.40;;
51987;SDS011;38003;52.012;4.346;2023-02-28T06:07:24;9.60;;;6.67;;
51987;SDS011;38003;52.012;4.346;2023-02-28T06:09:52;7.50;;;6.30;;
51987;SDS011;38003;52.012;4.346;2023-02-28T06:12:20;8.97;;;6.50;;
51987;SDS011;38003;52.012;4.346;2023-02-28T06:14:48;10.10;;;6.40;;
51987;SDS011;38003;52.012;4.346;2023-02-28T06:17:17;7.53;;;6.43;;
51987;SDS011;38003;52.012;4.346;2023-02-28T06:19:45;7.80;;;6.83;;
51987;SDS011;38003;52.012;4.346;2023-02-28T06:22:14;7.93;;;6.80;;
51987;SDS011;38003;52.012;4.346;2023-02-28T06:24:43;15.30;;;7.57;;
51987;SDS011;38003;52.012;4.346;2023-02-28T06:27:11;8.83;;;6.70;;
51987;SDS011;38003;52.012;4.346;2023-02-28T06:29:40;8.33;;;7.13;;
51987;SDS011;38003;52.012;4.346;2023-02-28T06:32:08;7.23;;;6.33;;
51987;SDS011;38003;52.012;4.346;2023-02-28T06:34:36;10.80;;;7.27;;
51987;SDS011;38003;52.012;4.346;2023-02-28T06:37:05;8.80;;;7.17;;
51987;SDS011;38003;52.012;4.346;2023-02-28T06:39:33;7.97;;;6.73;;
51987;SDS011;38003;52.012;4.346;2023-02-28T06:42:03;11.27;;;6.97;;
51987;SDS011;38003;52.012;4.346;2023-02-28T06:44:31;9.93;;;7.03;;
51987;SDS011;38003;52.012;4.346;2023-02-28T06:47:02;10.73;;;7.00;;
51987;SDS011;38003;52.012;4.346;2023-02-28T06:49:31;10.73;;;7.07;;
51987;SDS011;38003;52.012;4.346;2023-02-28T06:51:59;9.87;;;7.00;;
51987;SDS011;38003;52.012;4.346;2023-02-28T06:54:27;10.87;;;6.43;;
51987;SDS011;38003;52.012;4.346;2023-02-28T06:56:57;10.53;;;6.80;;
51987;SDS011;38003;52.012;4.346;2023-02-28T06:59:26;8.07;;;6.50;;
51987;SDS011;38003;52.012;4.346;2023-02-28T07:01:54;9.73;;;6.87;;
51987;SDS011;38003;52.012;4.346;2023-02-28T07:04:23;7.23;;;5.93;;
51987;SDS011;38003;52.012;4.346;2023-02-28T07:06:51;9.07;;;5.77;;
51987;SDS011;38003;52.012;4.346;2023-02-28T07:09:22;9.90;;;5.90;;
51987;SDS011;38003;52.012;4.346;2023-02-28T07:11:50;8.10;;;5.80;;
51987;SDS011;38003;52.012;4.346;2023-02-28T07:14:18;8.23;;;5.50;;
51987;SDS011;38003;52.012;4.346;2023-02-28T07:16:49;7.30;;;5.30;;
51987;SDS011;38003;52.012;4.346;2023-02-28T07:19:17;7.33;;;5.10;;
51987;SDS011;38003;52.012;4.346;2023-02-28T07:21:46;8.90;;;5.17;;
51987;SDS011;38003;52.012;4.346;2023-02-28T07:24:14;5.90;;;4.53;;
51987;SDS011;38003;52.012;4.346;2023-02-28T07:26:44;7.23;;;4.97;;
51987;SDS011;38003;52.012;4.346;2023-02-28T07:29:12;6.43;;;4.50;;
51987;SDS011;38003;52.012;4.346;2023-02-28T07:31:40;7.67;;;4.67;;
51987;SDS011;38003;52.012;4.346;2023-02-28T07:34:10;8.60;;;4.10;;
51987;SDS011;38003;52.012;4.346;2023-02-28T07:36:38;6.87;;;4.50;;
51987;SDS011;38003;52.012;4.346;2023-02-28T07:39:06;6.00;;;4.10;;
51987;SDS011;38003;52.012;4.346;2023-02-28T07:41:36;4.70;;;4.20;;
51987;SDS011;38003;52.012;4.346;2023-02-28T07:44:09;4.77;;;3.80;;
51987;SDS011;38003;52.012;4.346;2023-02-28T07:46:37;9.40;;;4.03;;
51987;SDS011;38003;52.012;4.346;2023-02-28T07:49:06;6.10;;;3.80;;
51987;SDS011;38003;52.012;4.346;2023-02-28T07:51:35;6.20;;;3.90;;
51987;SDS011;38003;52.012;4.346;2023-02-28T07:54:04;5.40;;;3.87;;
51987;SDS011;38003;52.012;4.346;2023-02-28T07:56:32;4.57;;;4.00;;
51987;SDS011;38003;52.012;4.346;2023-02-28T07:59:00;5.83;;;4.30;;
51987;SDS011;38003;52.012;4.346;2023-02-28T08:01:28;4.53;;;4.07;;
51987;SDS011;38003;52.012;4.346;2023-02-28T08:03:57;6.93;;;4.77;;
51987;SDS011;38003;52.012;4.346;2023-02-28T08:06:26;5.40;;;4.53;;
51987;SDS011;38003;52.012;4.346;2023-02-28T08:08:56;5.23;;;4.00;;
51987;SDS011;38003;52.012;4.346;2023-02-28T08:11:24;5.00;;;4.50;;
51987;SDS011;38003;52.012;4.346;2023-02-28T08:13:54;5.30;;;4.63;;
51987;SDS011;38003;52.012;4.346;2023-02-28T08:16:22;4.83;;;4.33;;
51987;SDS011;38003;52.012;4.346;2023-02-28T08:18:51;5.00;;;4.20;;
51987;SDS011;38003;52.012;4.346;2023-02-28T08:21:20;5.83;;;5.10;;
51987;SDS011;38003;52.012;4.346;2023-02-28T08:23:48;7.23;;;4.90;;
51987;SDS011;38003;52.012;4.346;2023-02-28T08:26:18;5.43;;;4.57;;
51987;SDS011;38003;52.012;4.346;2023-02-28T08:28:47;6.20;;;4.80;;
51987;SDS011;38003;52.012;4.346;2023-02-28T08:31:15;5.77;;;5.03;;
51987;SDS011;38003;52.012;4.346;2023-02-28T08:33:44;5.90;;;5.20;;
51987;SDS011;38003;52.012;4.346;2023-02-28T08:36:14;6.03;;;5.00;;
51987;SDS011;38003;52.012;4.346;2023-02-28T08:38:43;5.50;;;5.00;;
51987;SDS011;38003;52.012;4.346;2023-02-28T08:41:12;5.67;;;4.97;;
51987;SDS011;38003;52.012;4.346;2023-02-28T08:43:42;6.03;;;5.03;;
51987;SDS011;38003;52.012;4.346;2023-02-28T08:46:11;5.20;;;4.70;;
51987;SDS011;38003;52.012;4.346;2023-02-28T08:48:40;5.33;;;4.83;;
51987;SDS011;38003;52.012;4.346;2023-02-28T08:51:09;7.27;;;5.27;;
51987;SDS011;38003;52.012;4.346;2023-02-28T08:53:38;5.60;;;5.00;;
51987;SDS011;38003;52.012;4.346;2023-02-28T08:56:07;5.97;;;5.30;;
51987;SDS011;38003;52.012;4.346;2023-02-28T08:58:35;6.03;;;5.30;;
51987;SDS011;38003;52.012;4.346;2023-02-28T09:01:09;7.23;;;4.70;;
51987;SDS011;38003;52.012;4.346;2023-02-28T09:03:38;5.57;;;4.80;;
51987;SDS011;38003;52.012;4.346;2023-02-28T09:06:07;6.20;;;5.13;;
51987;SDS011;38003;52.012;4.346;2023-02-28T09:08:35;6.03;;;4.80;;
51987;SDS011;38003;52.012;4.346;2023-02-28T09:11:04;5.00;;;4.50;;
51987;SDS011;38003;52.012;4.346;2023-02-28T09:13:32;5.93;;;4.73;;
51987;SDS011;38003;52.012;4.346;2023-02-28T09:16:02;6.13;;;4.97;;
51987;SDS011;38003;52.012;4.346;2023-02-28T09:18:33;6.50;;;4.53;;
51987;SDS011;38003;52.012;4.346;2023-02-28T09:21:02;5.00;;;4.50;;
51987;SDS011;38003;52.012;4.346;2023-02-28T09:23:30;4.17;;;3.40;;
51987;SDS011;38003;52.012;4.346;2023-02-28T09:25:59;4.60;;;3.70;;
51987;SDS011;38003;52.012;4.346;2023-02-28T09:28:27;4.50;;;3.80;;
51987;SDS011;38003;52.012;4.346;2023-02-28T09:30:55;6.00;;;4.23;;
51987;SDS011;38003;52.012;4.346;2023-02-28T09:33:25;5.07;;;4.20;;
51987;SDS011;38003;52.012;4.346;2023-02-28T09:35:59;5.73;;;4.23;;
51987;SDS011;38003;52.012;4.346;2023-02-28T09:38:28;6.53;;;4.10;;
51987;SDS011;38003;52.012;4.346;2023-02-28T09:40:57;4.17;;;3.60;;
51987;SDS011;38003;52.012;4.346;2023-02-28T09:43:27;6.37;;;4.07;;
51987;SDS011;38003;52.012;4.346;2023-02-28T09:45:56;6.80;;;4.00;;
51987;SDS011;38003;52.012;4.346;2023-02-28T09:48:28;5.70;;;4.37;;
51987;SDS011;38003;52.012;4.346;2023-02-28T09:51:00;5.83;;;4.40;;
51987;SDS011;38003;52.012;4.346;2023-02-28T09:53:30;5.33;;;3.20;;
51987;SDS011;38003;52.012;4.346;2023-02-28T09:56:01;4.60;;;3.20;;
51987;SDS011;38003;52.012;4.346;2023-02-28T09:58:32;4.87;;;3.30;;
51987;SDS011;38003;52.012;4.346;2023-02-28T10:01:03;4.50;;;3.50;;
51987;SDS011;38003;52.012;4.346;2023-02-28T10:03:32;5.43;;;3.83;;
51987;SDS011;38003;52.012;4.346;2023-02-28T10:06:07;4.10;;;3.70;;
51987;SDS011;38003;52.012;4.346;2023-02-28T10:08:37;6.40;;;3.60;;
51987;SDS011;38003;52.012;4.346;2023-02-28T10:11:12;4.00;;;3.30;;
51987;SDS011;38003;52.012;4.346;2023-02-28T10:13:43;4.27;;;3.17;;
51987;SDS011;38003;52.012;4.346;2023-02-28T10:16:16;6.50;;;3.80;;
51987;SDS011;38003;52.012;4.346;2023-02-28T10:18:48;5.53;;;3.33;;
51987;SDS011;38003;52.012;4.346;2023-02-28T10:21:20;4.47;;;3.70;;
51987;SDS011;38003;52.012;4.346;2023-02-28T10:23:49;4.60;;;3.07;;
51987;SDS011;38003;52.012;4.346;2023-02-28T10:26:19;4.63;;;3.40;;
51987;SDS011;38003;52.012;4.346;2023-02-28T10:28:49;3.73;;;3.17;;
51987;SDS011;38003;52.012;4.346;2023-02-28T10:31:19;4.47;;;3.40;;
51987;SDS011;38003;52.012;4.346;2023-02-28T10:33:50;6.07;;;3.87;;
51987;SDS011;38003;52.012;4.346;2023-02-28T10:36:23;5.10;;;3.77;;
51987;SDS011;38003;52.012;4.346;2023-02-28T10:38:53;4.10;;;3.40;;
51987;SDS011;38003;52.012;4.346;2023-02-28T10:41:28;4.93;;;3.43;;
51987;SDS011;38003;52.012;4.346;2023-02-28T10:44:13;4.53;;;3.70;;
51987;SDS011;38003;52.012;4.346;2023-02-28T10:46:42;6.77;;;3.17;;
51987;SDS011;38003;52.012;4.346;2023-02-28T10:49:14;5.37;;;3.30;;
51987;SDS011;38003;52.012;4.346;2023-02-28T10:51:43;4.83;;;3.30;;
51987;SDS011;38003;52.012;4.346;2023-02-28T10:54:17;3.67;;;3.20;;
51987;SDS011;38003;52.012;4.346;2023-02-28T10:56:46;5.87;;;3.23;;
51987;SDS011;38003;52.012;4.346;2023-02-28T10:59:33;5.33;;;3.30;;
51987;SDS011;38003;52.012;4.346;2023-02-28T11:02:01;4.47;;;3.20;;
51987;SDS011;38003;52.012;4.346;2023-02-28T11:04:33;3.27;;;2.97;;
51987;SDS011;38003;52.012;4.346;2023-02-28T11:07:04;5.80;;;3.50;;
51987;SDS011;38003;52.012;4.346;2023-02-28T11:09:35;4.60;;;3.13;;
51987;SDS011;38003;52.012;4.346;2023-02-28T11:12:05;4.43;;;2.83;;
51987;SDS011;38003;52.012;4.346;2023-02-28T11:14:35;5.27;;;2.50;;
51987;SDS011;38003;52.012;4.346;2023-02-28T11:17:11;3.97;;;3.00;;
51987;SDS011;38003;52.012;4.346;2023-02-28T11:19:48;5.37;;;3.20;;
51987;SDS011;38003;52.012;4.346;2023-02-28T11:22:18;3.40;;;2.90;;
51987;SDS011;38003;52.012;4.346;2023-02-28T11:24:49;4.60;;;3.10;;
51987;SDS011;38003;52.012;4.346;2023-02-28T11:27:26;4.10;;;2.90;;
51987;SDS011;38003;52.012;4.346;2023-02-28T11:29:54;4.33;;;2.70;;
51987;SDS011;38003;52.012;4.346;2023-02-28T11:32:23;4.93;;;2.57;;
51987;SDS011;38003;52.012;4.346;2023-02-28T11:35:00;3.67;;;2.80;;
51987;SDS011;38003;52.012;4.346;2023-02-28T11:37:29;3.50;;;2.47;;
51987;SDS011;38003;52.012;4.346;2023-02-28T11:39:59;3.03;;;2.20;;
51987;SDS011;38003;52.012;4.346;2023-02-28T11:42:39;4.37;;;2.73;;
51987;SDS011;38003;52.012;4.346;2023-02-28T11:45:15;2.77;;;2.50;;
51987;SDS011;38003;52.012;4.346;2023-02-28T11:47:47;2.97;;;2.50;;
51987;SDS011;38003;52.012;4.346;2023-02-28T11:50:18;3.60;;;2.50;;
51987;SDS011;38003;52.012;4.346;2023-02-28T11:52:50;3.53;;;2.60;;
51987;SDS011;38003;52.012;4.346;2023-02-28T11:55:23;4.13;;;2.63;;
51987;SDS011;38003;52.012;4.346;2023-02-28T11:58:04;4.33;;;2.63;;
51987;SDS011;38003;52.012;4.346;2023-02-28T12:00:38;6.10;;;2.83;;
51987;SDS011;38003;52.012;4.346;2023-02-28T12:03:11;3.03;;;2.73;;
51987;SDS011;38003;52.012;4.346;2023-02-28T12:05:44;2.60;;;2.30;;
51987;SDS011;38003;52.012;4.346;2023-02-28T12:08:21;3.07;;;2.40;;
51987;SDS011;38003;52.012;4.346;2023-02-28T12:11:00;2.70;;;2.40;;
51987;SDS011;38003;52.012;4.346;2023-02-28T12:13:34;3.33;;;2.60;;
51987;SDS011;38003;52.012;4.346;2023-02-28T12:18:58;2.77;;;2.00;;
51987;SDS011;38003;52.012;4.346;2023-02-28T12:21:31;5.20;;;2.50;;
51987;SDS011;38003;52.012;4.346;2023-02-28T12:24:14;3.83;;;2.13;;
51987;SDS011;38003;52.012;4.346;2023-02-28T12:26:46;4.00;;;2.60;;
51987;SDS011;38003;52.012;4.346;2023-02-28T12:29:16;3.10;;;2.10;;
51987;SDS011;38003;52.012;4.346;2023-02-28T12:31:47;3.10;;;2.00;;
51987;SDS011;38003;52.012;4.346;2023-02-28T12:34:18;3.93;;;2.20;;
51987;SDS011;38003;52.012;4.346;2023-02-28T12:36:47;4.70;;;2.57;;
51987;SDS011;38003;52.012;4.346;2023-02-28T12:39:16;2.27;;;2.00;;
51987;SDS011;38003;52.012;4.346;2023-02-28T12:41:51;3.37;;;2.10;;
51987;SDS011;38003;52.012;4.346;2023-02-28T12:44:21;3.40;;;2.23;;
51987;SDS011;38003;52.012;4.346;2023-02-28T12:46:52;2.17;;;2.00;;
51987;SDS011;38003;52.012;4.346;2023-02-28T12:49:23;2.43;;;2.20;;
51987;SDS011;38003;52.012;4.346;2023-02-28T12:51:56;3.30;;;2.63;;
51987;SDS011;38003;52.012;4.346;2023-02-28T12:54:27;2.87;;;2.30;;
51987;SDS011;38003;52.012;4.346;2023-02-28T12:57:01;2.73;;;2.20;;
51987;SDS011;38003;52.012;4.346;2023-02-28T12:59:32;4.07;;;2.27;;
51987;SDS011;38003;52.012;4.346;2023-02-28T13:02:09;5.10;;;3.33;;
51987;SDS011;38003;52.012;4.346;2023-02-28T13:04:45;4.10;;;2.20;;
51987;SDS011;38003;52.012;4.346;2023-02-28T13:07:19;3.07;;;2.17;;
51987;SDS011;38003;52.012;4.346;2023-02-28T13:09:52;2.27;;;2.07;;
51987;SDS011;38003;52.012;4.346;2023-02-28T13:12:22;2.50;;;2.27;;
51987;SDS011;38003;52.012;4.346;2023-02-28T13:14:51;2.40;;;2.20;;
51987;SDS011;38003;52.012;4.346;2023-02-28T13:17:29;3.13;;;2.70;;
51987;SDS011;38003;52.012;4.346;2023-02-28T13:19:57;3.20;;;2.40;;
51987;SDS011;38003;52.012;4.346;2023-02-28T13:22:36;3.37;;;2.40;;
51987;SDS011;38003;52.012;4.346;2023-02-28T13:27:50;3.27;;;2.10;;
51987;SDS011;38003;52.012;4.346;2023-02-28T13:33:22;2.17;;;2.00;;
51987;SDS011;38003;52.012;4.346;2023-02-28T13:36:00;2.63;;;2.10;;
51987;SDS011;38003;52.012;4.346;2023-02-28T13:38:35;2.33;;;2.07;;
51987;SDS011;38003;52.012;4.346;2023-02-28T13:44:02;2.87;;;2.27;;
51987;SDS011;38003;52.012;4.346;2023-02-28T13:46:32;2.53;;;2.20;;
51987;SDS011;38003;52.012;4.346;2023-02-28T13:51:48;2.03;;;1.93;;
51987;SDS011;38003;52.012;4.346;2023-02-28T13:54:29;2.37;;;2.17;;
51987;SDS011;38003;52.012;4.346;2023-02-28T13:57:05;2.93;;;2.30;;
51987;SDS011;38003;52.012;4.346;2023-02-28T13:59:42;2.87;;;2.10;;
51987;SDS011;38003;52.012;4.346;2023-02-28T14:02:23;2.53;;;2.20;;
51987;SDS011;38003;52.012;4.346;2023-02-28T14:04:59;2.70;;;2.50;;
51987;SDS011;38003;52.012;4.346;2023-02-28T14:07:29;3.93;;;2.10;;
51987;SDS011;38003;52.012;4.346;2023-02-28T14:10:03;3.20;;;2.53;;
51987;SDS011;38003;52.012;4.346;2023-02-28T14:15:50;2.93;;;2.63;;
51987;SDS011;38003;52.012;4.346;2023-02-28T14:18:24;2.87;;;2.50;;
51987;SDS011;38003;52.012;4.346;2023-02-28T14:20:55;3.20;;;2.70;;
51987;SDS011;38003;52.012;4.346;2023-02-28T14:23:36;3.17;;;2.67;;
51987;SDS011;38003;52.012;4.346;2023-02-28T14:26:13;3.77;;;2.47;;
51987;SDS011;38003;52.012;4.346;2023-02-28T14:28:53;2.97;;;2.20;;
51987;SDS011;38003;52.012;4.346;2023-02-28T14:31:24;2.77;;;2.47;;
51987;SDS011;38003;52.012;4.346;2023-02-28T14:34:03;2.57;;;2.10;;
51987;SDS011;38003;52.012;4.346;2023-02-28T14:36:32;3.70;;;2.50;;
51987;SDS011;38003;52.012;4.346;2023-02-28T14:39:04;2.50;;;2.13;;
51987;SDS011;38003;52.012;4.346;2023-02-28T14:41:34;4.57;;;2.47;;
51987;SDS011;38003;52.012;4.346;2023-02-28T14:44:13;2.77;;;2.53;;
51987;SDS011;38003;52.012;4.346;2023-02-28T14:46:43;4.10;;;2.60;;
51987;SDS011;38003;52.012;4.346;2023-02-28T14:49:13;2.47;;;2.27;;
51987;SDS011;38003;52.012;4.346;2023-02-28T14:51:43;4.70;;;2.60;;
51987;SDS011;38003;52.012;4.346;2023-02-28T14:54:13;2.60;;;2.40;;
51987;SDS011;38003;52.012;4.346;2023-02-28T14:56:42;2.63;;;2.43;;
51987;SDS011;38003;52.012;4.346;2023-02-28T14:59:23;2.60;;;2.40;;
51987;SDS011;38003;52.012;4.346;2023-02-28T15:01:53;2.73;;;2.53;;
51987;SDS011;38003;52.012;4.346;2023-02-28T15:04:35;2.57;;;2.30;;
51987;SDS011;38003;52.012;4.346;2023-02-28T15:07:07;2.50;;;2.20;;
51987;SDS011;38003;52.012;4.346;2023-02-28T15:09:35;2.33;;;2.10;;
51987;SDS011;38003;52.012;4.346;2023-02-28T15:12:03;2.83;;;2.27;;
51987;SDS011;38003;52.012;4.346;2023-02-28T15:14:32;2.33;;;2.10;;
51987;SDS011;38003;52.012;4.346;2023-02-28T15:17:03;2.27;;;2.00;;
51987;SDS011;38003;52.012;4.346;2023-02-28T15:19:34;2.77;;;2.10;;
51987;SDS011;38003;52.012;4.346;2023-02-28T15:22:03;3.37;;;2.23;;
51987;SDS011;38003;52.012;4.346;2023-02-28T15:24:35;3.13;;;2.00;;
51987;SDS011;38003;52.012;4.346;2023-02-28T15:27:06;2.53;;;2.30;;
51987;SDS011;38003;52.012;4.346;2023-02-28T15:29:41;2.03;;;1.83;;
51987;SDS011;38003;52.012;4.346;2023-02-28T15:32:21;3.83;;;2.10;;